Time;durP1;ratioP1;P1;durP2;ratioP2;P2;SDS_P1;SDS_P2;PMS_P1;PMS_P2;Temp;Humidity;BMP_temperature;BMP_pressure;BME280_temperature;BME280_humidity;BME280_pressure;Samples;Min_cycle;Max_cycle;Signal;HPM_P1;HPM_P2
2021/05/27 00:01:46;;;;;;;;;;;;;;;;;;2145525;66;1187;-68
2021/05/27 00:04:11;;;;;;;;;;;;;;;;;;2145232;66;1133;-68
2021/05/27 00:06:37;;;;;;;;;;;;;;;;;;2145821;59;1354;-68
2021/05/27 00:09:02;;;;;;;;;;;;;;;;;;2143483;59;2318;-68
2021/05/27 00:11:27;;;;;;;;;;;;;;;;;;2148555;66;1332;-68
2021/05/27 00:13:53;;;;;;;;;;;;;;;;;;2146863;66;1349;-68
2021/05/27 00:16:18;;;;;;;;;;;;;;;;;;2146037;58;1934;-68
2021/05/27 00:18:43;;;;;;;;;;;;;;;;;;2146046;59;1199;-68
2021/05/27 00:21:08;;;;;;;;;;;;;;;;;;2146243;66;1088;-68
2021/05/27 00:23:34;;;;;;;;;;;;;;;;;;2144804;66;1548;-69
2021/05/27 00:25:59;;;;;;;;;;;;;;;;;;2146579;58;1715;-69
2021/05/27 00:28:24;;;;;;;;;;;;;;;;;;2148706;66;1779;-70
2021/05/27 00:30:49;;;;;;;;;;;;;;;;;;2145927;66;1387;-70
2021/05/27 00:33:15;;;;;;;;;;;;;;;;;;2148192;66;1105;-69
2021/05/27 00:35:40;;;;;;;;;;;;;;;;;;2148650;66;1982;-69
2021/05/27 00:38:05;;;;;;;;;;;;;;;;;;2145367;66;1168;-69
2021/05/27 00:40:30;;;;;;;;;;;;;;;;;;2145680;66;1384;-69
2021/05/27 00:42:55;;;;;;;;;;;;;;;;;;2146494;66;1248;-69
2021/05/27 00:45:20;;;;;;;;;;;;;;;;;;2144727;66;1416;-69
2021/05/27 00:47:46;;;;;;;;;;;;;;;;;;2146036;59;1719;-69
2021/05/27 00:50:20;;;;;;;;;;;;;;;;;;2144923;66;1218;-68
2021/05/27 00:52:46;;;;;;;;;;;;;;;;;;2147389;66;1216;-68
2021/05/27 00:55:11;;;;;;;;;;;;;;;;;;2145441;66;1931;-68
2021/05/27 00:57:37;;;;;;;;;;;;;;;;;;2146356;66;1423;-68
2021/05/27 01:00:07;;;;;;;;;;;;;;;;;;2144030;66;1239;-68
2021/05/27 01:02:33;;;;;;;;;;;;;;;;;;2146234;66;1151;-68
2021/05/27 01:04:58;;;;;;;;;;;;;;;;;;2145253;66;1271;-68
2021/05/27 01:07:23;;;;;;;;;;;;;;;;;;2144205;66;1305;-68
2021/05/27 01:09:49;;;;;;;;;;;;;;;;;;2145341;59;2317;-69
2021/05/27 01:12:14;;;;;;;;;;;;;;;;;;2145409;59;2787;-68
2021/05/27 01:17:23;;;;;;;;;;;;;;;;;;2144828;66;1002;-67
2021/05/27 01:19:52;;;;;;;;;;;;;;;;;;2144635;66;1363;-68
2021/05/27 01:22:18;;;;;;;;;;;;;;;;;;2146010;66;1143;-68
2021/05/27 01:24:44;;;;;;;;;;;;;;;;;;2145194;66;1193;-68
2021/05/27 01:27:09;;;;;;;;;;;;;;;;;;2145182;66;1625;-68
2021/05/27 01:29:34;;;;;;;;;;;;;;;;;;2145866;66;1491;-68
2021/05/27 01:31:59;;;;;;;;;;;;;;;;;;2144792;66;1078;-68
2021/05/27 01:34:24;;;;;;;;;;;;;;;;;;2146007;59;1318;-68
2021/05/27 01:36:49;;;;;;;;;;;;;;;;;;2144785;66;1931;-68
2021/05/27 01:39:15;;;;;;;;;;;;;;;;;;2146115;66;1609;-68
2021/05/27 01:41:40;;;;;;;;;;;;;;;;;;2145089;66;1167;-68
2021/05/27 01:44:05;;;;;;;;;;;;;;;;;;2145829;66;1502;-68
2021/05/27 01:46:30;;;;;;;;;;;;;;;;;;2145097;66;1363;-68
2021/05/27 01:48:56;;;;;;;;;;;;;;;;;;2146191;66;1286;-67
2021/05/27 01:51:21;;;;;;;;;;;;;;;;;;2145800;66;1429;-68
2021/05/27 01:53:46;;;;;;;;;;;;;;;;;;2144585;66;1199;-68
2021/05/27 01:56:12;;;;;;;;;;;;;;;;;;2144861;66;1984;-67
2021/05/27 01:58:38;;;;;;;;;;;;;;;;;;2145044;66;1457;-68
2021/05/27 02:01:03;;;;;;;;;;;;;;;;;;2145104;66;1808;-68
2021/05/27 02:03:28;;;;;;;;;;;;;;;;;;2144229;66;1122;-68
2021/05/27 02:05:53;;;;;;;;;;;;;;;;;;2141108;66;1659;-68
2021/05/27 02:08:20;;;;;;;;;;;;;;;;;;2145256;58;1728;-68
2021/05/27 02:10:45;;;;;;;;;;;;;;;;;;2145624;59;2391;-68
2021/05/27 02:13:10;;;;;;;;;;;;;;;;;;2144718;66;2322;-71
2021/05/27 02:15:36;;;;;;;;;;;;;;;;;;2141975;59;1985;-67
2021/05/27 02:18:02;;;;;;;;;;;;;;;;;;2144459;66;1238;-69
2021/05/27 02:20:27;;;;;;;;;;;;;;;;;;2145640;59;1233;-68
2021/05/27 02:22:52;;;;;;;;;;;;;;;;;;2146136;66;2234;-68
2021/05/27 02:25:17;;;;;;;;;;;;;;;;;;2144559;66;1714;-67
2021/05/27 02:27:42;;;;;;;;;;;;;;;;;;2146315;66;1224;-69
2021/05/27 02:30:08;;;;;;;;;;;;;;;;;;2145124;66;1218;-67
2021/05/27 02:32:33;;;;;;;;;;;;;;;;;;2144893;66;1391;-68
2021/05/27 02:34:58;;;;;;;;;;;;;;;;;;2144969;59;1972;-66
2021/05/27 02:37:23;;;;;;;;;;;;;;;;;;2144784;66;1280;-68
2021/05/27 02:39:48;;;;;;;;;;;;;;;;;;2145673;66;1149;-69
2021/05/27 02:42:14;;;;;;;;;;;;;;;;;;2145315;66;1252;-68
2021/05/27 02:44:39;;;;;;;;;;;;;;;;;;2144532;66;1245;-68
2021/05/27 02:47:04;;;;;;;;;;;;;;;;;;2145621;59;1805;-67
2021/05/27 02:49:29;;;;;;;;;;;;;;;;;;2144992;66;1329;-68
2021/05/27 02:51:54;;;;;;;;;;;;;;;;;;2144205;66;1275;-67
2021/05/27 02:54:20;;;;;;;;;;;;;;;;;;2144479;66;1348;-68
2021/05/27 02:56:45;;;;;;;;;;;;;;;;;;2145140;66;1927;-68
2021/05/27 02:59:11;;;;;;;;;;;;;;;;;;2144751;66;1150;-68
2021/05/27 03:01:36;;;;;;;;;;;;;;;;;;2146898;66;1171;-69
2021/05/27 03:04:02;;;;;;;;;;;;;;;;;;2145098;66;1427;-66
2021/05/27 03:06:27;;;;;;;;;;;;;;;;;;2144635;66;1247;-67
2021/05/27 03:08:52;;;;;;;;;;;;;;;;;;2145875;66;1304;-68
2021/05/27 03:11:17;;;;;;;;;;;;;;;;;;2144724;59;2574;-66
2021/05/27 03:13:43;;;;;;;;;;;;;;;;;;2147676;59;2392;-66
2021/05/27 03:16:08;;;;;;;;;;;;;;;;;;2147436;58;1929;-70
2021/05/27 03:18:33;;;;;;;;;;;;;;;;;;2145116;66;1222;-67
2021/05/27 03:20:59;;;;;;;;;;;;;;;;;;2146195;59;1290;-67
2021/05/27 03:23:25;;;;;;;;;;;;;;;;;;2145915;66;1454;-67
2021/05/27 03:25:50;;;;;;;;;;;;;;;;;;2146878;66;1269;-67
2021/05/27 03:28:15;;;;;;;;;;;;;;;;;;2146589;58;1298;-68
2021/05/27 03:30:41;;;;;;;;;;;;;;;;;;2145208;66;1182;-67
2021/05/27 03:33:06;;;;;;;;;;;;;;;;;;2145406;66;1146;-66
2021/05/27 03:35:32;;;;;;;;;;;;;;;;;;2145839;66;1986;-69
2021/05/27 03:37:57;;;;;;;;;;;;;;;;;;2146177;66;1463;-66
2021/05/27 03:40:22;;;;;;;;;;;;;;;;;;2145450;66;1646;-66
2021/05/27 03:42:51;;;;;;;;;;;;;;;;;;2145263;66;1218;-69
2021/05/27 03:45:16;;;;;;;;;;;;;;;;;;2146507;66;1237;-66
2021/05/27 03:47:42;;;;;;;;;;;;;;;;;;2144714;66;1189;-68
2021/05/27 03:50:08;;;;;;;;;;;;;;;;;;2145119;66;1151;-68
2021/05/27 03:52:34;;;;;;;;;;;;;;;;;;2147040;66;1257;-66
2021/05/27 03:54:59;;;;;;;;;;;;;;;;;;2144727;59;1976;-66
2021/05/27 03:57:25;;;;;;;;;;;;;;;;;;2145964;59;1464;-66
2021/05/27 04:02:34;;;;;;;;;;;;;;;;;;2145988;59;1039;-68
2021/05/27 04:07:43;;;;;;;;;;;;;;;;;;2145365;59;1268;-66
2021/05/27 04:10:09;;;;;;;;;;;;;;;;;;2144823;66;1376;-68
2021/05/27 04:12:45;;;;;;;;;;;;;;;;;;2145383;59;2591;-69
2021/05/27 04:15:24;;;;;;;;;;;;;;;;;;2145195;58;2688;-69
2021/05/27 04:17:55;;;;;;;;;;;;;;;;;;2146617;53;2138;-70
2021/05/27 04:20:21;;;;;;;;;;;;;;;;;;2135837;59;1342;-68
2021/05/27 04:22:49;;;;;;;;;;;;;;;;;;2130385;59;1778;-69
2021/05/27 04:25:16;;;;;;;;;;;;;;;;;;2132988;59;1241;-68
2021/05/27 04:27:42;;;;;;;;;;;;;;;;;;2131809;67;1645;-68
2021/05/27 04:30:17;;;;;;;;;;;;;;;;;;2130431;67;1658;-69
2021/05/27 04:35:22;;;;;;;;;;;;;;;;;;2130665;59;1980;-69
2021/05/27 04:37:47;;;;;;;;;;;;;;;;;;2131713;67;1266;-69
2021/05/27 04:40:12;;;;;;;;;;;;;;;;;;2131635;66;1152;-69
2021/05/27 04:42:38;;;;;;;;;;;;;;;;;;2130348;67;1368;-67
2021/05/27 04:45:04;;;;;;;;;;;;;;;;;;2130529;59;1342;-66
2021/05/27 04:47:29;;;;;;;;;;;;;;;;;;2131015;59;1430;-68
2021/05/27 04:49:54;;;;;;;;;;;;;;;;;;2129135;60;1209;-68
2021/05/27 04:52:19;;;;;;;;;;;;;;;;;;2132078;59;1136;-67
2021/05/27 04:54:44;;;;;;;;;;;;;;;;;;2127912;67;1311;-67
2021/05/27 04:57:10;;;;;;;;;;;;;;;;;;2126909;67;1925;-69
2021/05/27 04:59:35;;;;;;;;;;;;;;;;;;2130675;59;1337;-67
2021/05/27 05:02:00;;;;;;;;;;;;;;;;;;2131997;59;1280;-67
2021/05/27 05:04:25;;;;;;;;;;;;;;;;;;2130999;67;1072;-67
2021/05/27 05:06:50;;;;;;;;;;;;;;;;;;2132220;67;1587;-67
2021/05/27 05:09:15;;;;;;;;;;;;;;;;;;2129038;66;1084;-67
2021/05/27 05:11:41;;;;;;;;;;;;;;;;;;2132082;66;1211;-66
2021/05/27 05:14:06;;;;;;;;;;;;;;;;;;2129430;59;2428;-66
2021/05/27 05:16:31;;;;;;;;;;;;;;;;;;2130622;59;1933;-65
2021/05/27 05:18:56;;;;;;;;;;;;;;;;;;2131441;59;1688;-68
2021/05/27 05:21:21;;;;;;;;;;;;;;;;;;2129503;67;1277;-68
2021/05/27 05:23:46;;;;;;;;;;;;;;;;;;2130712;67;1143;-68
2021/05/27 05:26:11;;;;;;;;;;;;;;;;;;2130371;67;1136;-68
2021/05/27 05:28:37;;;;;;;;;;;;;;;;;;2130232;59;1523;-67
2021/05/27 05:31:02;;;;;;;;;;;;;;;;;;2130746;67;1686;-67
2021/05/27 05:33:28;;;;;;;;;;;;;;;;;;2131240;67;1244;-67
2021/05/27 05:35:53;;;;;;;;;;;;;;;;;;2131881;67;1918;-67
2021/05/27 05:38:18;;;;;;;;;;;;;;;;;;2131697;67;1215;-67
2021/05/27 05:40:44;;;;;;;;;;;;;;;;;;2131717;59;1385;-67
2021/05/27 05:43:09;;;;;;;;;;;;;;;;;;2131852;67;1728;-67
2021/05/27 05:45:34;;;;;;;;;;;;;;;;;;2130515;59;1278;-66
2021/05/27 05:48:00;;;;;;;;;;;;;;;;;;2132052;67;1280;-67
2021/05/27 05:53:10;;;;;;;;;;;;;;;;;;2130863;59;1316;-68
2021/05/27 05:55:35;;;;;;;;;;;;;;;;;;2131531;59;1976;-66
2021/05/27 05:58:02;;;;;;;;;;;;;;;;;;2129829;67;1266;-67
2021/05/27 06:00:27;;;;;;;;;;;;;;;;;;2132187;66;1762;-66
2021/05/27 06:02:52;;;;;;;;;;;;;;;;;;2131149;67;1109;-66
2021/05/27 06:05:17;;;;;;;;;;;;;;;;;;2134477;66;1319;-66
2021/05/27 06:07:42;;;;;;;;;;;;;;;;;;2129725;59;1461;-67
2021/05/27 06:10:08;;;;;;;;;;;;;;;;;;2131303;67;1410;-67
2021/05/27 06:12:33;;;;;;;;;;;;;;;;;;2135464;66;1727;-66
2021/05/27 06:14:58;;;;;;;;;;;;;;;;;;2130524;59;2292;-67
2021/05/27 06:17:24;;;;;;;;;;;;;;;;;;2131224;59;1801;-67
2021/05/27 06:19:49;;;;;;;;;;;;;;;;;;2132233;59;1277;-66
2021/05/27 06:22:14;;;;;;;;;;;;;;;;;;2129045;67;1632;-67
2021/05/27 06:24:39;;;;;;;;;;;;;;;;;;2130680;59;1467;-68
2021/05/27 06:27:04;;;;;;;;;;;;;;;;;;2134631;66;1344;-68
2021/05/27 06:29:30;;;;;;;;;;;;;;;;;;2130665;66;1237;-67
2021/05/27 06:31:55;;;;;;;;;;;;;;;;;;2132219;66;1652;-69
2021/05/27 06:34:20;;;;;;;;;;;;;;;;;;2131458;67;1079;-66
2021/05/27 06:36:45;;;;;;;;;;;;;;;;;;2132571;66;1929;-67
2021/05/27 06:39:10;;;;;;;;;;;;;;;;;;2132044;67;1602;-69
2021/05/27 06:41:36;;;;;;;;;;;;;;;;;;2132426;59;1390;-69
2021/05/27 06:44:01;;;;;;;;;;;;;;;;;;2128667;67;1312;-66
2021/05/27 06:46:27;;;;;;;;;;;;;;;;;;2131324;67;1348;-65
2021/05/27 06:48:53;;;;;;;;;;;;;;;;;;2130676;59;1357;-66
2021/05/27 06:51:19;;;;;;;;;;;;;;;;;;2130623;67;1398;-67
2021/05/27 06:53:44;;;;;;;;;;;;;;;;;;2131690;66;1493;-67
2021/05/27 06:56:09;;;;;;;;;;;;;;;;;;2131103;66;1924;-68
2021/05/27 06:58:35;;;;;;;;;;;;;;;;;;2130222;59;1391;-68
2021/05/27 07:01:00;;;;;;;;;;;;;;;;;;2133796;66;1121;-68
2021/05/27 07:03:25;;;;;;;;;;;;;;;;;;2132825;66;1122;-67
2021/05/27 07:05:50;;;;;;;;;;;;;;;;;;2130313;59;1721;-68
2021/05/27 07:08:16;;;;;;;;;;;;;;;;;;2130832;59;1820;-68
2021/05/27 07:10:41;;;;;;;;;;;;;;;;;;2131345;58;2053;-68
2021/05/27 07:13:07;;;;;;;;;;;;;;;;;;2130344;59;1979;-66
2021/05/27 07:15:33;;;;;;;;;;;;;;;;;;2130009;59;2365;-67
2021/05/27 07:17:58;;;;;;;;;;;;;;;;;;2131187;59;3214;-68
2021/05/27 07:20:24;;;;;;;;;;;;;;;;;;2132062;66;1426;-66
2021/05/27 07:22:51;;;;;;;;;;;;;;;;;;2133636;66;1360;-67
2021/05/27 07:25:16;;;;;;;;;;;;;;;;;;2130753;67;1290;-66
2021/05/27 07:27:43;;;;;;;;;;;;;;;;;;2131190;67;1265;-67
2021/05/27 07:30:09;;;;;;;;;;;;;;;;;;2131015;59;1850;-67
2021/05/27 07:32:34;;;;;;;;;;;;;;;;;;2130689;67;1804;-67
2021/05/27 07:34:59;;;;;;;;;;;;;;;;;;2128668;67;1928;-67
2021/05/27 07:37:24;;;;;;;;;;;;;;;;;;2128898;67;1289;-67
2021/05/27 07:39:50;;;;;;;;;;;;;;;;;;2130806;67;1239;-69
2021/05/27 07:42:15;;;;;;;;;;;;;;;;;;2129630;67;1254;-68
2021/05/27 07:44:40;;;;;;;;;;;;;;;;;;2129201;59;3292;-67
2021/05/27 07:47:05;;;;;;;;;;;;;;;;;;2129679;66;1782;-68
2021/05/27 07:49:31;;;;;;;;;;;;;;;;;;2128991;67;1368;-67
2021/05/27 07:51:57;;;;;;;;;;;;;;;;;;2126253;67;1267;-68
2021/05/27 07:54:22;;;;;;;;;;;;;;;;;;2130257;67;1162;-67
2021/05/27 07:56:48;;;;;;;;;;;;;;;;;;2129816;67;1930;-67
2021/05/27 07:59:14;;;;;;;;;;;;;;;;;;2129151;67;1236;-68
2021/05/27 08:01:39;;;;;;;;;;;;;;;;;;2126891;59;1387;-65
2021/05/27 08:04:04;;;;;;;;;;;;;;;;;;2126361;66;1175;-67
2021/05/27 08:06:29;;;;;;;;;;;;;;;;;;2129428;59;1962;-66
2021/05/27 08:08:55;;;;;;;;;;;;;;;;;;2130278;66;1257;-68
2021/05/27 08:11:20;;;;;;;;;;;;;;;;;;2128690;67;1282;-67
2021/05/27 08:13:46;;;;;;;;;;;;;;;;;;2129666;67;1152;-67
2021/05/27 08:16:11;;;;;;;;;;;;;;;;;;2130778;59;2279;-67
2021/05/27 08:18:37;;;;;;;;;;;;;;;;;;2126840;59;2571;-68
2021/05/27 08:21:02;;;;;;;;;;;;;;;;;;2132390;66;1338;-67
2021/05/27 08:23:27;;;;;;;;;;;;;;;;;;2130253;67;1241;-67
2021/05/27 08:25:52;;;;;;;;;;;;;;;;;;2130513;67;1388;-66
2021/05/27 08:28:18;;;;;;;;;;;;;;;;;;2131040;59;1243;-67
2021/05/27 08:30:43;;;;;;;;;;;;;;;;;;2129899;67;1480;-67
2021/05/27 08:33:08;;;;;;;;;;;;;;;;;;2128942;67;1635;-68
2021/05/27 08:35:33;;;;;;;;;;;;;;;;;;2128345;67;1970;-67
2021/05/27 08:37:59;;;;;;;;;;;;;;;;;;2131474;66;1274;-66
2021/05/27 08:40:24;;;;;;;;;;;;;;;;;;2137194;66;1227;-66
2021/05/27 08:42:50;;;;;;;;;;;;;;;;;;2130897;59;1176;-66
2021/05/27 08:45:16;;;;;;;;;;;;;;;;;;2129241;59;2207;-69
2021/05/27 08:47:42;;;;;;;;;;;;;;;;;;2130201;59;2786;-66
2021/05/27 08:50:09;;;;;;;;;;;;;;;;;;2128908;67;1482;-67
2021/05/27 08:52:34;;;;;;;;;;;;;;;;;;2129754;67;1260;-69
2021/05/27 08:54:59;;;;;;;;;;;;;;;;;;2130511;59;1913;-69
2021/05/27 08:57:25;;;;;;;;;;;;;;;;;;2129653;67;2201;-67
2021/05/27 08:59:50;;;;;;;;;;;;;;;;;;2131201;59;1251;-67
2021/05/27 09:02:15;;;;;;;;;;;;;;;;;;2129035;67;1307;-68
2021/05/27 09:04:41;;;;;;;;;;;;;;;;;;2128209;59;1690;-67
2021/05/27 09:07:06;;;;;;;;;;;;;;;;;;2130378;67;2277;-67
2021/05/27 09:09:49;;;;;;;;;;;;;;;;;;2128939;59;1307;-67
2021/05/27 09:12:24;;;;;;;;;;;;;;;;;;2128753;67;1759;-67
2021/05/27 09:14:49;;;;;;;;;;;;;;;;;;2131348;59;1592;-67
2021/05/27 09:17:14;;;;;;;;;;;;;;;;;;2129298;59;2347;-69
2021/05/27 09:19:39;;;;;;;;;;;;;;;;;;2129115;59;2387;-66
2021/05/27 09:22:19;;;;;;;;;;;;;;;;;;2129863;59;1337;-66
2021/05/27 09:24:45;;;;;;;;;;;;;;;;;;2129983;67;1184;-67
2021/05/27 09:27:10;;;;;;;;;;;;;;;;;;2127315;59;1725;-67
2021/05/27 09:29:42;;;;;;;;;;;;;;;;;;2129554;59;1742;-68
2021/05/27 09:32:07;;;;;;;;;;;;;;;;;;2132129;66;1306;-67
2021/05/27 09:34:59;;;;;;;;;;;;;;;;;;2126948;66;1355;-66
2021/05/27 09:37:31;;;;;;;;;;;;;;;;;;2127619;59;1899;-68
2021/05/27 09:39:58;;;;;;;;;;;;;;;;;;2131365;59;1602;-68
2021/05/27 09:42:23;;;;;;;;;;;;;;;;;;2131279;67;1304;-67
2021/05/27 09:44:49;;;;;;;;;;;;;;;;;;2126225;59;2283;-69
2021/05/27 09:47:28;;;;;;;;;;;;;;;;;;2129288;59;2716;-68
2021/05/27 09:49:59;;;;;;;;;;;;;;;;;;2129655;59;1564;-68
2021/05/27 09:52:26;;;;;;;;;;;;;;;;;;2131286;59;1317;-69
2021/05/27 09:54:52;;;;;;;;;;;;;;;;;;2131126;59;1437;-68
2021/05/27 09:57:21;;;;;;;;;;;;;;;;;;2129186;59;1921;-69
2021/05/27 09:59:47;;;;;;;;;;;;;;;;;;2131168;67;1160;-70
2021/05/27 10:02:12;;;;;;;;;;;;;;;;;;2125871;59;1298;-68
2021/05/27 10:04:37;;;;;;;;;;;;;;;;;;2127485;59;1346;-66
2021/05/27 10:07:02;;;;;;;;;;;;;;;;;;2130584;59;1732;-67
2021/05/27 10:09:27;;;;;;;;;;;;;;;;;;2129714;67;1379;-67
2021/05/27 10:11:53;;;;;;;;;;;;;;;;;;2126652;67;1316;-68
2021/05/27 10:14:19;;;;;;;;;;;;;;;;;;2130175;67;1341;-66
2021/05/27 10:16:44;;;;;;;;;;;;;;;;;;2131540;59;1927;-67
2021/05/27 10:19:10;;;;;;;;;;;;;;;;;;2144842;53;2394;-69
2021/05/27 10:21:37;;;;;;;;;;;;;;;;;;2145578;58;1915;-69
2021/05/27 10:24:03;;;;;;;;;;;;;;;;;;2145111;58;2213;-69
2021/05/27 10:26:28;;;;;;;;;;;;;;;;;;2146546;66;1475;-67
2021/05/27 10:28:54;;;;;;;;;;;;;;;;;;2145378;66;1431;-66
2021/05/27 10:31:21;;;;;;;;;;;;;;;;;;2144606;66;1683;-69
2021/05/27 10:33:46;;;;;;;;;;;;;;;;;;2140888;66;1807;-69
2021/05/27 10:36:11;;;;;;;;;;;;;;;;;;2143472;59;1967;-69
2021/05/27 10:38:37;;;;;;;;;;;;;;;;;;2144178;66;1459;-69
2021/05/27 10:41:02;;;;;;;;;;;;;;;;;;2141351;59;1713;-69
2021/05/27 10:43:27;;;;;;;;;;;;;;;;;;2143936;66;1915;-69
2021/05/27 10:45:59;;;;;;;;;;;;;;;;;;2143165;66;2627;-69
2021/05/27 10:48:25;;;;;;;;;;;;;;;;;;2140804;59;2611;-69
2021/05/27 10:53:34;;;;;;;;;;;;;;;;;;2142126;59;1878;-69
2021/05/27 10:55:59;;;;;;;;;;;;;;;;;;2143044;59;1983;-69
2021/05/27 10:58:54;;;;;;;;;;;;;;;;;;2142494;66;1480;-69
2021/05/27 11:01:19;;;;;;;;;;;;;;;;;;2140658;66;1995;-70
2021/05/27 11:03:50;;;;;;;;;;;;;;;;;;2140737;66;1566;-70
2021/05/27 11:06:30;;;;;;;;;;;;;;;;;;2144253;66;1791;-69
2021/05/27 11:09:11;;;;;;;;;;;;;;;;;;2145000;66;1913;-69
2021/05/27 11:11:38;;;;;;;;;;;;;;;;;;2142594;66;1472;-69
2021/05/27 11:14:20;;;;;;;;;;;;;;;;;;2144292;66;1463;-70
2021/05/27 11:17:01;;;;;;;;;;;;;;;;;;2143541;59;1980;-70
2021/05/27 11:25:11;;;;;;;;;;;;;;;;;;2144076;59;1651;-70
2021/05/27 11:27:38;;;;;;;;;;;;;;;;;;2144634;66;1776;-70
2021/05/27 11:30:26;;;;;;;;;;;;;;;;;;2143721;59;1720;-70
2021/05/27 11:32:55;;;;;;;;;;;;;;;;;;2141925;59;3140;-70
2021/05/27 11:35:24;;;;;;;;;;;;;;;;;;2142604;66;1941;-70
2021/05/27 11:37:50;;;;;;;;;;;;;;;;;;2144054;66;1639;-70
2021/05/27 11:40:17;;;;;;;;;;;;;;;;;;2143590;66;1563;-70
2021/05/27 11:42:52;;;;;;;;;;;;;;;;;;2144370;59;4043;-70
2021/05/27 11:45:18;;;;;;;;;;;;;;;;;;2144035;66;1522;-70
2021/05/27 11:48:03;;;;;;;;;;;;;;;;;;2142345;59;2587;-70
2021/05/27 11:50:28;;;;;;;;;;;;;;;;;;2142489;59;3187;-69
2021/05/27 11:52:57;;;;;;;;;;;;;;;;;;2143604;59;2065;-69
2021/05/27 11:55:22;;;;;;;;;;;;;;;;;;2143474;66;1917;-69
2021/05/27 11:57:48;;;;;;;;;;;;;;;;;;2143060;66;1372;-68
2021/05/27 12:00:15;;;;;;;;;;;;;;;;;;2143798;66;1810;-68
2021/05/27 12:02:42;;;;;;;;;;;;;;;;;;2144137;66;1607;-69
2021/05/27 12:05:39;;;;;;;;;;;;;;;;;;2140691;66;1980;-69
2021/05/27 12:08:05;;;;;;;;;;;;;;;;;;2138477;59;1633;-69
2021/05/27 12:10:35;;;;;;;;;;;;;;;;;;2144741;66;1820;-68
2021/05/27 12:13:01;;;;;;;;;;;;;;;;;;2143462;59;1639;-68
2021/05/27 12:15:27;;;;;;;;;;;;;;;;;;2143563;59;1936;-69
2021/05/27 12:17:53;;;;;;;;;;;;;;;;;;2143248;58;1565;-69
2021/05/27 12:20:26;;;;;;;;;;;;;;;;;;2142117;59;3262;-69
2021/05/27 12:23:06;;;;;;;;;;;;;;;;;;2142868;66;3305;-69
2021/05/27 12:25:36;;;;;;;;;;;;;;;;;;2142587;60;1539;-69
2021/05/27 12:28:02;;;;;;;;;;;;;;;;;;2144439;59;1978;-69
2021/05/27 12:30:29;;;;;;;;;;;;;;;;;;2145584;66;1920;-69
2021/05/27 12:32:56;;;;;;;;;;;;;;;;;;2145149;66;1571;-68
2021/05/27 12:35:23;;;;;;;;;;;;;;;;;;2143269;58;2642;-69
2021/05/27 12:37:48;;;;;;;;;;;;;;;;;;2142976;66;2141;-68
2021/05/27 12:40:23;;;;;;;;;;;;;;;;;;2143756;66;1170;-70
2021/05/27 12:42:49;;;;;;;;;;;;;;;;;;2143091;66;1472;-70
2021/05/27 12:45:23;;;;;;;;;;;;;;;;;;2143616;66;1304;-68
2021/05/27 12:48:17;;;;;;;;;;;;;;;;;;2141632;59;2768;-69
2021/05/27 12:50:44;;;;;;;;;;;;;;;;;;2137717;60;2371;-69
2021/05/27 12:53:26;;;;;;;;;;;;;;;;;;2143717;59;1417;-69
2021/05/27 12:55:52;;;;;;;;;;;;;;;;;;2143213;66;2026;-68
2021/05/27 12:58:32;;;;;;;;;;;;;;;;;;2144312;66;2156;-69
2021/05/27 13:00:58;;;;;;;;;;;;;;;;;;2143293;66;1325;-68
2021/05/27 13:03:23;;;;;;;;;;;;;;;;;;2142018;59;1384;-69
2021/05/27 13:06:05;;;;;;;;;;;;;;;;;;2143629;66;1333;-70
2021/05/27 13:08:31;;;;;;;;;;;;;;;;;;2140463;66;1556;-69
2021/05/27 13:10:56;;;;;;;;;;;;;;;;;;2143910;59;1656;-69
2021/05/27 13:13:30;;;;;;;;;;;;;;;;;;2143251;66;1184;-68
2021/05/27 13:15:55;;;;;;;;;;;;;;;;;;2142683;59;1919;-69
2021/05/27 13:18:20;;;;;;;;;;;;;;;;;;2143283;59;1652;-69
2021/05/27 13:20:58;;;;;;;;;;;;;;;;;;2141279;59;2398;-68
2021/05/27 13:23:25;;;;;;;;;;;;;;;;;;2141938;59;2462;-68
2021/05/27 13:25:50;;;;;;;;;;;;;;;;;;2144535;59;2332;-68
2021/05/27 13:28:22;;;;;;;;;;;;;;;;;;2143439;59;1674;-68
2021/05/27 13:30:50;;;;;;;;;;;;;;;;;;2143925;66;1396;-69
2021/05/27 13:33:17;;;;;;;;;;;;;;;;;;2143477;59;1363;-69
2021/05/27 13:35:46;;;;;;;;;;;;;;;;;;2143409;59;1920;-69
2021/05/27 13:38:17;;;;;;;;;;;;;;;;;;2139905;66;1252;-68
2021/05/27 13:40:42;;;;;;;;;;;;;;;;;;2143580;66;1330;-67
2021/05/27 13:43:08;;;;;;;;;;;;;;;;;;2143039;66;1640;-69
2021/05/27 13:45:34;;;;;;;;;;;;;;;;;;2143067;66;1082;-69
2021/05/27 13:47:59;;;;;;;;;;;;;;;;;;2142283;59;2598;-68
2021/05/27 13:50:26;;;;;;;;;;;;;;;;;;2141026;63;2649;-69
2021/05/27 13:52:51;;;;;;;;;;;;;;;;;;2142950;59;1546;-69
2021/05/27 13:55:18;;;;;;;;;;;;;;;;;;2142353;66;1992;-69
2021/05/27 13:57:43;;;;;;;;;;;;;;;;;;2142547;66;1439;-68
2021/05/27 14:00:09;;;;;;;;;;;;;;;;;;2142583;59;1380;-70
2021/05/27 14:02:34;;;;;;;;;;;;;;;;;;2143320;59;1775;-68
2021/05/27 14:05:02;;;;;;;;;;;;;;;;;;2140845;59;1964;-69
2021/05/27 14:07:27;;;;;;;;;;;;;;;;;;2140486;66;1614;-68
2021/05/27 14:09:53;;;;;;;;;;;;;;;;;;2143458;66;1594;-69
2021/05/27 14:12:19;;;;;;;;;;;;;;;;;;2143744;59;1733;-68
2021/05/27 14:14:44;;;;;;;;;;;;;;;;;;2143678;59;1983;-69
2021/05/27 14:17:09;;;;;;;;;;;;;;;;;;2142472;58;2127;-70
2021/05/27 14:19:34;;;;;;;;;;;;;;;;;;2142582;59;1970;-69
2021/05/27 14:21:59;;;;;;;;;;;;;;;;;;2141603;59;2597;-69
2021/05/27 14:24:25;;;;;;;;;;;;;;;;;;2141709;59;2350;-69
2021/05/27 14:26:52;;;;;;;;;;;;;;;;;;2142631;59;1899;-68
2021/05/27 14:29:17;;;;;;;;;;;;;;;;;;2143095;59;1912;-69
2021/05/27 14:31:42;;;;;;;;;;;;;;;;;;2144053;59;1970;-69
2021/05/27 14:34:07;;;;;;;;;;;;;;;;;;2144232;59;1870;-69
2021/05/27 14:36:33;;;;;;;;;;;;;;;;;;2144281;66;1929;-68
2021/05/27 14:38:58;;;;;;;;;;;;;;;;;;2141454;66;1467;-69
2021/05/27 14:41:23;;;;;;;;;;;;;;;;;;2142770;66;1178;-68
2021/05/27 14:43:49;;;;;;;;;;;;;;;;;;2143779;66;1372;-69
2021/05/27 14:46:14;;;;;;;;;;;;;;;;;;2143837;66;1165;-69
2021/05/27 14:48:40;;;;;;;;;;;;;;;;;;2141824;59;2446;-69
2021/05/27 14:51:05;;;;;;;;;;;;;;;;;;2140166;59;2706;-69
2021/05/27 14:53:30;;;;;;;;;;;;;;;;;;2143578;66;1740;-69
2021/05/27 14:56:00;;;;;;;;;;;;;;;;;;2144907;66;1934;-69
2021/05/27 14:58:25;;;;;;;;;;;;;;;;;;2142385;66;1277;-69
2021/05/27 15:00:52;;;;;;;;;;;;;;;;;;2144088;66;1695;-69
2021/05/27 15:03:17;;;;;;;;;;;;;;;;;;2143423;59;1793;-68
2021/05/27 15:05:43;;;;;;;;;;;;;;;;;;2144465;59;1732;-69
2021/05/27 15:08:08;;;;;;;;;;;;;;;;;;2142564;59;1689;-69
2021/05/27 15:10:33;;;;;;;;;;;;;;;;;;2143618;59;1818;-68
2021/05/27 15:12:59;;;;;;;;;;;;;;;;;;2144737;66;1205;-68
2021/05/27 15:15:24;;;;;;;;;;;;;;;;;;2142273;59;1920;-69
2021/05/27 15:17:51;;;;;;;;;;;;;;;;;;2144425;59;1754;-69
2021/05/27 15:20:16;;;;;;;;;;;;;;;;;;2140769;59;2406;-69
2021/05/27 15:22:42;;;;;;;;;;;;;;;;;;2143485;66;2316;-69
2021/05/27 15:25:07;;;;;;;;;;;;;;;;;;2140705;59;2470;-69
2021/05/27 15:27:32;;;;;;;;;;;;;;;;;;2143859;66;1661;-68
2021/05/27 15:29:58;;;;;;;;;;;;;;;;;;2144321;66;1366;-68
2021/05/27 15:32:23;;;;;;;;;;;;;;;;;;2144277;59;1246;-68
2021/05/27 15:34:49;;;;;;;;;;;;;;;;;;2144198;66;1146;-68
2021/05/27 15:37:15;;;;;;;;;;;;;;;;;;2141251;59;1937;-68
2021/05/27 15:39:40;;;;;;;;;;;;;;;;;;2144517;66;1474;-68
2021/05/27 15:42:05;;;;;;;;;;;;;;;;;;2141474;58;2716;-69
2021/05/27 15:44:30;;;;;;;;;;;;;;;;;;2144766;66;1481;-68
2021/05/27 15:46:56;;;;;;;;;;;;;;;;;;2142379;58;1936;-68
2021/05/27 15:49:21;;;;;;;;;;;;;;;;;;2143771;66;2122;-68
2021/05/27 15:51:46;;;;;;;;;;;;;;;;;;2141148;58;2335;-69
2021/05/27 15:54:13;;;;;;;;;;;;;;;;;;2144200;66;1389;-69
2021/05/27 15:56:39;;;;;;;;;;;;;;;;;;2143432;59;2002;-69
2021/05/27 15:59:04;;;;;;;;;;;;;;;;;;2140155;59;2003;-69
2021/05/27 16:01:29;;;;;;;;;;;;;;;;;;2142952;66;1302;-68
2021/05/27 16:03:54;;;;;;;;;;;;;;;;;;2143511;66;1950;-69
2021/05/27 16:06:20;;;;;;;;;;;;;;;;;;2143918;59;1626;-69
2021/05/27 16:08:45;;;;;;;;;;;;;;;;;;2141174;59;1385;-68
2021/05/27 16:11:11;;;;;;;;;;;;;;;;;;2143710;66;1964;-68
2021/05/27 16:13:36;;;;;;;;;;;;;;;;;;2143691;66;1226;-68
2021/05/27 16:16:03;;;;;;;;;;;;;;;;;;2144365;59;1967;-69
2021/05/27 16:18:28;;;;;;;;;;;;;;;;;;2143160;53;3484;-70
2021/05/27 16:20:54;;;;;;;;;;;;;;;;;;2132733;59;1564;-71
2021/05/27 16:23:19;;;;;;;;;;;;;;;;;;2132269;59;2200;-71
2021/05/27 16:25:44;;;;;;;;;;;;;;;;;;2132120;59;2365;-71
2021/05/27 16:28:10;;;;;;;;;;;;;;;;;;2133021;59;1318;-68
2021/05/27 16:30:35;;;;;;;;;;;;;;;;;;2132659;67;1224;-68
2021/05/27 16:33:03;;;;;;;;;;;;;;;;;;2133857;59;1381;-70
2021/05/27 16:35:46;;;;;;;;;;;;;;;;;;2132449;59;1929;-67
2021/05/27 16:38:18;;;;;;;;;;;;;;;;;;2131224;67;1469;-67
2021/05/27 16:40:44;;;;;;;;;;;;;;;;;;2134494;67;1206;-68
2021/05/27 16:43:09;;;;;;;;;;;;;;;;;;2133459;66;1258;-70
2021/05/27 16:45:37;;;;;;;;;;;;;;;;;;2131904;67;1211;-70
2021/05/27 16:48:03;;;;;;;;;;;;;;;;;;2133882;67;1619;-70
2021/05/27 16:50:28;;;;;;;;;;;;;;;;;;2134088;59;1911;-67
2021/05/27 16:52:53;;;;;;;;;;;;;;;;;;2133140;59;2314;-70
2021/05/27 16:55:18;;;;;;;;;;;;;;;;;;2133067;67;1387;-70
2021/05/27 16:57:46;;;;;;;;;;;;;;;;;;2133886;66;1931;-70
2021/05/27 17:00:12;;;;;;;;;;;;;;;;;;2133838;67;1020;-70
2021/05/27 17:02:38;;;;;;;;;;;;;;;;;;2132971;67;1294;-70
2021/05/27 17:05:04;;;;;;;;;;;;;;;;;;2133060;67;1154;-69
2021/05/27 17:07:29;;;;;;;;;;;;;;;;;;2129878;59;1660;-71
2021/05/27 17:09:54;;;;;;;;;;;;;;;;;;2133587;59;1229;-67
2021/05/27 17:12:19;;;;;;;;;;;;;;;;;;2134763;59;1389;-68
2021/05/27 17:14:44;;;;;;;;;;;;;;;;;;2134032;59;1215;-68
2021/05/27 17:17:10;;;;;;;;;;;;;;;;;;2133736;59;1935;-68
2021/05/27 17:19:35;;;;;;;;;;;;;;;;;;2132420;59;1388;-67
2021/05/27 17:22:00;;;;;;;;;;;;;;;;;;2132748;66;1781;-70